Time;durP1;ratioP1;P1;durP2;ratioP2;P2;SDS_P1;SDS_P2;PMS_P1;PMS_P2;Temp;Humidity;BMP_temperature;BMP_pressure;BME280_temperature;BME280_humidity;BME280_pressure;Samples;Min_cycle;Max_cycle;Signal;HPM_P1;HPM_P2
2023/12/01 00:02:14;;;;;;;71.17;24.67;;;-1.20;99.90;;;;;;5054720;28;20059;-24
2023/12/01 00:04:39;;;;;;;68.37;23.37;;;-1.30;99.90;;;;;;5054107;28;20503;-24
2023/12/01 00:07:05;;;;;;;73.03;24.83;;;-0.50;99.90;;;;;;5036884;28;20051;-24
2023/12/01 00:09:32;;;;;;;78.30;25.10;;;-1.10;99.90;;;;;;5053715;28;20433;-24
2023/12/01 00:11:58;;;;;;;89.60;27.80;;;-1.30;99.90;;;;;;5053950;28;20094;-24
2023/12/01 00:14:24;;;;;;;80.60;26.40;;;-1.00;99.90;;;;;;5053648;28;20052;-24
2023/12/01 00:16:50;;;;;;;71.87;26.23;;;-1.20;99.90;;;;;;5054481;28;20049;-24
2023/12/01 00:19:15;;;;;;;77.27;26.20;;;-1.20;99.90;;;;;;5053802;28;20049;-24
2023/12/01 00:21:41;;;;;;;92.87;27.37;;;-1.30;99.90;;;;;;5053925;28;20399;-24
2023/12/01 00:24:08;;;;;;;85.67;28.00;;;-1.20;99.90;;;;;;5053870;28;20497;-24
2023/12/01 00:26:33;;;;;;;90.63;27.73;;;-1.00;99.90;;;;;;5053432;28;20052;-25
2023/12/01 00:28:59;;;;;;;80.20;27.33;;;-1.30;99.90;;;;;;5052556;28;20445;-24
2023/12/01 00:31:25;;;;;;;82.63;27.57;;;-1.20;99.90;;;;;;5035991;28;20084;-24
2023/12/01 00:33:51;;;;;;;82.27;27.60;;;-1.20;99.90;;;;;;5052489;28;20045;-24
2023/12/01 00:36:17;;;;;;;60.30;24.53;;;-0.90;99.90;;;;;;5053927;28;20051;-24
2023/12/01 00:38:43;;;;;;;61.00;22.13;;;-0.90;99.90;;;;;;5053666;28;20080;-23
2023/12/01 00:41:09;;;;;;;59.27;22.40;;;-1.10;99.90;;;;;;5053656;28;20483;-24
2023/12/01 00:43:36;;;;;;;50.07;20.40;;;-1.30;99.90;;;;;;5035827;28;20044;-24
2023/12/01 00:46:04;;;;;;;56.03;22.33;;;-0.90;99.90;;;;;;5052089;28;20049;-24
2023/12/01 00:48:30;;;;;;;52.70;22.10;;;-1.20;99.90;;;;;;5035566;28;20053;-23
2023/12/01 00:50:56;;;;;;;50.13;21.70;;;-1.40;99.90;;;;;;5053710;28;20049;-23
2023/12/01 00:53:22;;;;;;;51.47;21.97;;;-1.40;99.90;;;;;;5052421;28;20194;-23
2023/12/01 00:55:48;;;;;;;56.37;23.90;;;-1.30;99.90;;;;;;5035362;28;20498;-23
2023/12/01 00:58:13;;;;;;;58.27;23.20;;;-1.30;99.90;;;;;;5052336;28;20052;-23
2023/12/01 01:00:40;;;;;;;53.47;22.60;;;-1.50;99.90;;;;;;5053133;28;20123;-23
2023/12/01 01:03:06;;;;;;;59.73;22.30;;;-1.40;99.90;;;;;;5053430;28;20406;-23
2023/12/01 01:05:32;;;;;;;50.43;22.37;;;-1.40;99.90;;;;;;5036603;28;20049;-23
2023/12/01 01:07:58;;;;;;;47.80;21.33;;;-1.40;99.90;;;;;;5052408;28;20048;-23
2023/12/01 01:10:24;;;;;;;53.03;21.77;;;-1.40;99.90;;;;;;5053326;28;20041;-23
2023/12/01 01:12:51;;;;;;;51.90;21.80;;;-0.80;99.90;;;;;;5053551;28;20375;-23
2023/12/01 01:15:16;;;;;;;54.67;22.67;;;-1.50;99.90;;;;;;5052374;28;20049;-23
2023/12/01 01:17:42;;;;;;;55.00;22.53;;;-1.60;99.90;;;;;;5053478;28;20364;-22
2023/12/01 01:20:10;;;;;;;50.43;21.87;;;-1.70;99.90;;;;;;5053161;28;20098;-23
2023/12/01 01:22:37;;;;;;;54.87;23.53;;;-1.70;99.90;;;;;;5054064;28;20120;-23
2023/12/01 01:25:04;;;;;;;56.77;24.30;;;-1.60;99.90;;;;;;5053205;28;20053;-22
2023/12/01 01:27:34;;;;;;;52.00;22.27;;;-1.60;99.90;;;;;;5051525;28;20190;-22
2023/12/01 01:30:00;;;;;;;57.93;23.10;;;-1.20;99.90;;;;;;5053167;28;20128;-22
2023/12/01 01:32:25;;;;;;;53.67;23.73;;;-1.70;99.90;;;;;;5051873;28;20494;-22
2023/12/01 01:34:51;;;;;;;53.03;22.43;;;-1.60;99.90;;;;;;5052951;28;20517;-22
2023/12/01 01:37:17;;;;;;;59.40;23.20;;;-1.60;99.90;;;;;;5053678;28;20045;-22
2023/12/01 01:39:43;;;;;;;59.73;23.43;;;-1.80;99.90;;;;;;5053025;28;20056;-22
2023/12/01 01:42:09;;;;;;;59.07;23.77;;;-1.90;99.90;;;;;;5053364;28;20045;-22
2023/12/01 01:44:35;;;;;;;63.00;23.60;;;-1.70;99.90;;;;;;5052877;28;20048;-22
2023/12/01 01:47:02;;;;;;;57.57;23.50;;;-1.80;99.90;;;;;;5035873;28;20068;-22
2023/12/01 01:49:28;;;;;;;60.83;23.80;;;-1.80;99.90;;;;;;5051739;28;20041;-21
2023/12/01 01:51:55;;;;;;;61.90;25.00;;;-1.90;99.90;;;;;;5035205;28;20044;-22
2023/12/01 01:54:24;;;;;;;66.47;23.70;;;-0.90;99.90;;;;;;5052916;28;20052;-21
2023/12/01 01:56:54;;;;;;;60.03;23.97;;;-1.80;99.90;;;;;;5053189;28;20049;-21
2023/12/01 01:59:20;;;;;;;57.57;23.87;;;-1.90;99.90;;;;;;5035094;28;20394;-22
2023/12/01 02:01:48;;;;;;;55.53;24.70;;;-1.80;99.90;;;;;;5056429;28;20427;-21
2023/12/01 02:04:15;;;;;;;56.97;22.60;;;-1.90;99.90;;;;;;5055435;28;20044;-21
2023/12/01 02:06:41;;;;;;;61.10;22.97;;;-1.90;99.90;;;;;;5056367;28;20119;-21
2023/12/01 02:09:07;;;;;;;59.23;23.97;;;-2.00;99.90;;;;;;5055190;28;20157;-21
2023/12/01 02:11:34;;;;;;;60.10;23.70;;;-2.10;99.90;;;;;;5054955;28;20055;-21
2023/12/01 02:13:59;;;;;;;59.83;21.63;;;-2.30;99.90;;;;;;5055086;28;20052;-21
2023/12/01 02:16:26;;;;;;;61.37;24.17;;;-2.30;99.90;;;;;;5056128;28;20044;-20
2023/12/01 02:18:54;;;;;;;65.90;23.53;;;-2.40;99.90;;;;;;5054809;28;20135;-20
2023/12/01 02:21:36;;;;;;;71.50;25.00;;;-2.40;99.90;;;;;;5056379;28;20441;-20
2023/12/01 02:24:03;;;;;;;67.10;24.63;;;-2.40;99.90;;;;;;5056943;28;20049;-20
2023/12/01 02:26:29;;;;;;;80.13;26.27;;;-2.30;99.90;;;;;;5055711;28;20540;-20
2023/12/01 02:28:54;;;;;;;88.10;26.93;;;-2.30;99.90;;;;;;5055923;28;20057;-20
2023/12/01 02:31:20;;;;;;;95.70;28.47;;;-2.20;99.90;;;;;;5055838;28;20040;-20
2023/12/01 02:33:46;;;;;;;83.23;27.67;;;-2.10;99.90;;;;;;5054354;28;20554;-20
2023/12/01 02:36:13;;;;;;;84.20;27.70;;;-2.10;99.90;;;;;;5055821;28;20048;-20
2023/12/01 02:38:39;;;;;;;85.30;27.57;;;-2.20;99.90;;;;;;5054580;28;20099;-20
2023/12/01 02:41:05;;;;;;;85.63;27.63;;;-2.10;99.90;;;;;;5054585;28;20045;-20
2023/12/01 02:43:31;;;;;;;78.67;27.03;;;-2.20;99.90;;;;;;5056207;28;20048;-20
2023/12/01 02:45:56;;;;;;;79.83;25.40;;;-2.30;99.90;;;;;;5054544;28;20045;-20
2023/12/01 02:48:22;;;;;;;95.03;28.83;;;-2.40;99.90;;;;;;5055608;28;20556;-19
2023/12/01 02:50:48;;;;;;;87.27;26.47;;;-2.20;99.90;;;;;;5055498;28;20040;-20
2023/12/01 02:53:17;;;;;;;82.70;26.87;;;-2.30;99.90;;;;;;5038794;28;20094;-20
2023/12/01 02:55:45;;;;;;;81.47;27.83;;;-2.20;99.90;;;;;;5054251;28;20102;-20
2023/12/01 02:58:11;;;;;;;79.23;24.67;;;-2.40;99.90;;;;;;5055404;28;20049;-19
2023/12/01 03:00:37;;;;;;;71.00;24.57;;;-2.50;99.90;;;;;;5055345;28;20479;-19
2023/12/01 03:03:03;;;;;;;70.00;25.33;;;-2.50;99.90;;;;;;5054183;28;20048;-19
2023/12/01 03:05:29;;;;;;;68.50;22.33;;;-2.60;99.90;;;;;;5054122;28;20390;-19
2023/12/01 03:07:55;;;;;;;71.33;23.83;;;-2.70;99.90;;;;;;5055177;28;20045;-19
2023/12/01 03:10:21;;;;;;;73.37;25.20;;;-2.80;99.90;;;;;;5055075;28;20045;-19
2023/12/01 03:12:46;;;;;;;75.57;26.13;;;-3.00;99.90;;;;;;5054480;28;20081;-19
2023/12/01 03:15:17;;;;;;;85.03;25.10;;;-3.00;99.90;;;;;;5055638;28;20053;-19
2023/12/01 03:17:43;;;;;;;77.40;24.60;;;-3.30;99.90;;;;;;5055372;28;20099;-19
2023/12/01 03:20:10;;;;;;;82.60;24.77;;;-3.20;99.90;;;;;;5054923;28;20041;-18
2023/12/01 03:22:40;;;;;;;76.27;25.60;;;-3.30;99.90;;;;;;5055493;28;20052;-19
2023/12/01 03:25:11;;;;;;;79.77;24.43;;;-3.30;99.90;;;;;;5054930;28;20037;-18
2023/12/01 03:27:41;;;;;;;73.70;25.47;;;-3.50;99.90;;;;;;5055046;28;20060;-18
2023/12/01 03:30:13;;;;;;;85.20;25.47;;;-3.60;99.90;;;;;;5054809;28;20040;-18
2023/12/01 03:32:50;;;;;;;70.20;23.43;;;-3.70;99.90;;;;;;5054989;28;20049;-19
2023/12/01 03:35:21;;;;;;;84.53;26.53;;;-3.80;99.90;;;;;;5054665;28;20052;-19
2023/12/01 03:37:48;;;;;;;87.07;24.00;;;-3.80;99.90;;;;;;5055221;28;20124;-19
2023/12/01 03:40:15;;;;;;;91.10;26.20;;;-4.00;99.90;;;;;;5054262;28;20554;-19
2023/12/01 03:42:48;;;;;;;89.90;25.17;;;-4.00;99.90;;;;;;5054576;28;20084;-19
2023/12/01 03:45:14;;;;;;;;;;;-4.10;99.90;;;;;;5055262;28;20396;-19
2023/12/01 03:47:44;;;;;;;89.77;23.00;;;-4.30;99.90;;;;;;5054536;28;20370;-18
2023/12/01 03:50:11;;;;;;;95.80;25.60;;;-4.30;99.90;;;;;;5054445;28;20060;-19
2023/12/01 03:52:41;;;;;;;91.03;25.20;;;-4.40;99.90;;;;;;5054819;28;20124;-18
2023/12/01 03:55:09;;;;;;;86.00;24.90;;;-4.40;99.90;;;;;;5054307;28;20045;-18
2023/12/01 03:57:34;;;;;;;100.00;25.40;;;-4.60;99.90;;;;;;5054794;28;20045;-18
2023/12/01 04:00:00;;;;;;;96.50;25.30;;;-4.70;99.90;;;;;;5054757;28;20056;-19
2023/12/01 04:02:26;;;;;;;96.47;25.13;;;-4.60;99.90;;;;;;5054223;28;20041;-19
2023/12/01 04:04:52;;;;;;;90.80;23.80;;;-4.80;99.90;;;;;;5053180;28;20055;-18
2023/12/01 04:07:18;;;;;;;102.43;26.30;;;-4.90;99.90;;;;;;5054092;28;20041;-18
2023/12/01 04:09:44;;;;;;;104.30;24.87;;;-4.90;99.90;;;;;;5054606;28;20045;-18
2023/12/01 04:12:10;;;;;;;113.33;26.93;;;-4.90;99.90;;;;;;5052508;28;20091;-18
2023/12/01 04:14:35;;;;;;;105.07;25.37;;;-4.90;99.90;;;;;;5053971;28;20044;-18
2023/12/01 04:17:08;;;;;;;106.03;26.77;;;-5.00;99.90;;;;;;5054776;28;20060;-19
2023/12/01 04:19:38;;;;;;;112.68;27.35;;;-5.00;99.90;;;;;;5038065;28;20049;-18
2023/12/01 04:22:07;;;;;;;113.47;26.10;;;-5.20;99.90;;;;;;5054364;28;20102;-18
2023/12/01 04:24:33;;;;;;;101.83;25.43;;;-5.20;99.90;;;;;;5035437;28;20047;-18
2023/12/01 04:27:03;;;;;;;98.53;23.83;;;-5.20;99.90;;;;;;5053819;28;20130;-18
2023/12/01 04:29:31;;;;;;;95.93;25.30;;;-5.30;99.90;;;;;;5053752;28;20135;-18
2023/12/01 04:31:57;;;;;;;103.47;24.87;;;-5.30;99.90;;;;;;5053660;28;20403;-18
2023/12/01 04:34:26;;;;;;;98.83;23.70;;;-5.40;99.90;;;;;;5052698;28;20041;-18
2023/12/01 04:36:53;;;;;;;101.67;24.53;;;-5.40;99.90;;;;;;5053914;28;20053;-18
2023/12/01 04:39:22;;;;;;;99.70;24.97;;;-5.50;99.90;;;;;;5052969;28;20060;-18
2023/12/01 04:41:50;;;;;;;106.47;25.70;;;-5.40;99.90;;;;;;5052459;28;20099;-18
2023/12/01 04:44:16;;;;;;;122.37;27.97;;;-5.40;99.90;;;;;;5053600;28;20045;-18
2023/12/01 04:46:42;;;;;;;112.90;25.80;;;-5.40;99.90;;;;;;5053588;28;20059;-18
2023/12/01 04:49:11;;;;;;;104.90;25.50;;;-5.50;99.90;;;;;;5052369;28;20045;-18
2023/12/01 04:51:36;;;;;;;107.27;25.13;;;-5.50;99.90;;;;;;5053485;28;20044;-18
2023/12/01 04:54:06;;;;;;;107.37;26.93;;;-5.60;99.90;;;;;;5054105;28;20049;-18
2023/12/01 04:56:33;;;;;;;103.90;25.47;;;-5.60;99.90;;;;;;5053519;28;20053;-18
2023/12/01 04:59:00;;;;;;;93.20;24.00;;;-5.70;99.90;;;;;;5053425;28;20127;-18
2023/12/01 05:01:26;;;;;;;99.97;25.70;;;-5.70;99.90;;;;;;5053417;28;20564;-18
2023/12/01 05:03:52;;;;;;;105.13;24.43;;;-5.80;99.90;;;;;;5053413;28;20084;-18
2023/12/01 05:06:18;;;;;;;95.90;25.17;;;-5.70;99.90;;;;;;5053877;28;20387;-18
2023/12/01 05:08:43;;;;;;;102.67;25.23;;;-5.90;99.90;;;;;;5053335;28;20053;-18
2023/12/01 05:11:09;;;;;;;87.33;24.23;;;-6.00;99.90;;;;;;5053243;28;20138;-18
2023/12/01 05:13:35;;;;;;;95.17;25.60;;;-6.00;99.90;;;;;;5053367;28;20045;-18
2023/12/01 05:16:01;;;;;;;92.73;25.27;;;-6.00;99.90;;;;;;5052652;28;20045;-18
2023/12/01 05:18:26;;;;;;;103.77;26.33;;;-6.00;99.90;;;;;;5053282;28;20509;-18
2023/12/01 05:20:53;;;;;;;104.23;25.57;;;-6.00;99.90;;;;;;5054003;28;20126;-18
2023/12/01 05:23:19;;;;;;;108.57;25.67;;;-6.00;99.90;;;;;;5052027;28;20123;-18
2023/12/01 05:25:46;;;;;;;119.53;27.30;;;-5.90;99.90;;;;;;5052227;28;20041;-18
2023/12/01 05:28:12;;;;;;;109.37;26.73;;;-5.90;99.90;;;;;;5052933;28;20064;-18
2023/12/01 05:30:45;;;;;;;121.30;27.20;;;-5.90;99.90;;;;;;5053109;28;20127;-18
2023/12/01 05:33:11;;;;;;;;;;;-6.00;99.90;;;;;;5053658;28;20067;-18
2023/12/01 05:35:38;;;;;;;112.83;25.67;;;-5.90;99.90;;;;;;5055183;28;20358;-18
2023/12/01 05:38:05;;;;;;;114.93;24.77;;;-5.80;99.90;;;;;;5056917;28;20095;-18
2023/12/01 05:40:35;;;;;;;119.57;26.87;;;-5.80;99.90;;;;;;5055664;28;20041;-18
2023/12/01 05:43:02;;;;;;;112.60;26.00;;;-5.80;99.90;;;;;;5057139;28;20541;-18
2023/12/01 05:45:29;;;;;;;128.03;26.63;;;-5.80;99.90;;;;;;5055547;28;20107;-18
2023/12/01 05:47:56;;;;;;;97.87;22.80;;;-5.80;99.90;;;;;;5056698;28;20055;-18
2023/12/01 05:50:23;;;;;;;104.10;24.23;;;-5.80;99.90;;;;;;5056663;28;20053;-18
2023/12/01 05:52:51;;;;;;;101.63;27.10;;;-5.80;99.90;;;;;;5056583;28;20132;-18
2023/12/01 05:55:22;;;;;;;103.40;24.30;;;-5.80;99.90;;;;;;5056592;28;20059;-18
2023/12/01 05:57:48;;;;;;;115.67;27.03;;;-5.70;99.90;;;;;;5055285;28;20053;-18
2023/12/01 06:00:17;;;;;;;112.27;26.27;;;-5.70;99.90;;;;;;5057033;28;20041;-18
2023/12/01 06:02:48;;;;;;;104.90;26.50;;;-5.80;99.90;;;;;;5056515;28;20043;-18
2023/12/01 06:05:19;;;;;;;115.10;25.87;;;-5.70;99.90;;;;;;5056744;28;20060;-18
2023/12/01 06:07:49;;;;;;;111.63;25.80;;;-5.70;99.90;;;;;;5056341;28;20041;-18
2023/12/01 06:10:17;;;;;;;101.17;25.07;;;-5.60;99.90;;;;;;5055380;28;20471;-18
2023/12/01 06:12:43;;;;;;;111.13;25.53;;;-5.60;99.90;;;;;;5056758;28;20049;-18
2023/12/01 06:15:10;;;;;;;108.60;24.23;;;-5.60;99.90;;;;;;5056254;28;20194;-18
2023/12/01 06:17:44;;;;;;;98.90;22.83;;;-5.60;99.90;;;;;;5056236;28;20048;-18
2023/12/01 06:20:17;;;;;;;;;;;-5.70;99.90;;;;;;5056214;28;20518;-18
2023/12/01 06:23:05;;;;;;;94.88;21.77;;;-5.80;99.90;;;;;;5055862;28;20370;-18
2023/12/01 06:25:35;;;;;;;89.03;22.07;;;-6.00;99.90;;;;;;5055745;28;20040;-18
2023/12/01 06:28:03;;;;;;;79.63;21.40;;;-6.10;99.90;;;;;;5054271;28;20396;-19
2023/12/01 06:30:33;;;;;;;74.10;19.80;;;-6.10;99.90;;;;;;5055923;28;20049;-18
2023/12/01 06:33:00;;;;;;;68.70;19.30;;;-6.20;99.90;;;;;;5055821;28;20056;-18
2023/12/01 06:35:26;;;;;;;94.30;22.17;;;-6.30;99.90;;;;;;5056674;28;20128;-18
2023/12/01 06:37:52;;;;;;;79.03;22.00;;;-6.10;99.90;;;;;;5055821;28;20132;-18
2023/12/01 06:40:20;;;;;;;100.43;24.77;;;-6.20;99.90;;;;;;5055088;28;20048;-18
2023/12/01 06:42:54;;;;;;;92.43;23.87;;;-6.20;99.90;;;;;;5054579;28;20048;-19
2023/12/01 06:45:22;;;;;;;81.30;22.93;;;-6.20;99.90;;;;;;5055664;28;20048;-18
2023/12/01 06:47:49;;;;;;;92.03;24.27;;;-6.20;99.90;;;;;;5053879;28;20053;-18
2023/12/01 06:50:16;;;;;;;105.00;23.03;;;-6.20;99.90;;;;;;5054423;28;20123;-18
2023/12/01 06:52:43;;;;;;;100.70;23.60;;;-6.10;99.90;;;;;;5055435;28;20554;-18
2023/12/01 06:55:09;;;;;;;88.77;24.20;;;-6.10;99.90;;;;;;5054492;28;20110;-18
2023/12/01 06:57:46;;;;;;;91.50;25.57;;;-6.20;99.90;;;;;;5055141;28;20406;-18
2023/12/01 07:00:36;;;;;;;92.13;23.97;;;-6.20;99.90;;;;;;5056270;28;20045;-18
2023/12/01 07:03:07;;;;;;;114.40;26.07;;;-6.30;99.90;;;;;;5055639;28;20057;-18
2023/12/01 07:05:35;;;;;;;100.90;25.70;;;-6.20;99.90;;;;;;5055937;28;20061;-18
2023/12/01 07:08:03;;;;;;;93.03;24.70;;;-6.10;99.90;;;;;;5055220;28;20487;-18
2023/12/01 07:10:29;;;;;;;119.33;28.03;;;-6.20;99.90;;;;;;5055080;28;20454;-18
2023/12/01 07:12:56;;;;;;;106.17;26.20;;;-6.10;99.90;;;;;;5055118;28;20044;-18
2023/12/01 07:15:24;;;;;;;115.53;27.00;;;-6.10;99.90;;;;;;5055636;28;20048;-18
2023/12/01 07:17:54;;;;;;;115.27;26.43;;;-6.20;99.90;;;;;;5055006;28;20497;-18
2023/12/01 07:20:21;;;;;;;105.17;25.97;;;-6.20;99.90;;;;;;5053949;28;20559;-18
2023/12/01 07:22:49;;;;;;;119.70;27.23;;;-6.20;99.90;;;;;;5054927;28;20124;-18
2023/12/01 07:25:25;;;;;;;120.07;27.47;;;-6.20;99.90;;;;;;5055172;28;20394;-18
2023/12/01 07:28:02;;;;;;;123.20;27.27;;;-6.20;99.90;;;;;;5054978;28;20061;-18
2023/12/01 07:30:28;;;;;;;115.70;26.70;;;-6.20;99.90;;;;;;5055388;28;20049;-18
2023/12/01 07:32:54;;;;;;;135.73;28.67;;;-6.10;99.90;;;;;;5054754;28;20045;-18
2023/12/01 07:35:21;;;;;;;125.70;28.20;;;-5.90;99.90;;;;;;5054781;28;20049;-18
2023/12/01 07:37:48;;;;;;;145.00;31.00;;;-5.90;99.90;;;;;;5054655;28;20384;-18
2023/12/01 07:40:19;;;;;;;136.70;30.10;;;-5.80;99.90;;;;;;5054447;28;20041;-18
2023/12/01 07:42:46;;;;;;;143.33;30.87;;;-5.70;99.90;;;;;;5053907;28;20106;-18
2023/12/01 07:45:17;;;;;;;128.80;27.73;;;-5.60;99.90;;;;;;5054210;28;20503;-18
2023/12/01 07:47:44;;;;;;;147.40;30.00;;;-5.50;99.90;;;;;;5055024;28;20045;-18
2023/12/01 07:50:10;;;;;;;137.53;31.80;;;-5.40;99.90;;;;;;5053827;28;20521;-18
2023/12/01 07:52:36;;;;;;;140.27;31.37;;;-5.40;99.90;;;;;;5053629;28;20049;-18
2023/12/01 07:55:03;;;;;;;135.03;31.53;;;-5.40;99.90;;;;;;5054857;28;20067;-18
2023/12/01 07:57:28;;;;;;;134.23;33.20;;;-5.40;99.90;;;;;;5054025;28;20047;-18
2023/12/01 07:59:54;;;;;;;129.17;30.43;;;-5.40;99.90;;;;;;5054442;28;20041;-18
2023/12/01 08:02:20;;;;;;;117.70;28.47;;;-5.40;99.90;;;;;;5054044;28;20380;-19
2023/12/01 08:04:46;;;;;;;137.83;31.33;;;-5.40;99.90;;;;;;5054076;28;20080;-18
2023/12/01 08:07:12;;;;;;;131.77;30.33;;;-5.50;99.90;;;;;;5054574;28;20044;-18
2023/12/01 08:09:37;;;;;;;132.43;30.63;;;-5.40;99.90;;;;;;5052868;28;20048;-18
2023/12/01 08:12:04;;;;;;;131.57;30.77;;;-5.40;99.90;;;;;;5053918;28;20045;-18
2023/12/01 08:14:30;;;;;;;104.53;28.60;;;-5.40;99.90;;;;;;5054524;28;20520;-18
2023/12/01 08:16:56;;;;;;;115.27;28.27;;;-5.40;99.90;;;;;;5053958;28;20134;-18
2023/12/01 08:19:22;;;;;;;106.50;27.87;;;-5.30;99.90;;;;;;5053805;28;20391;-18
2023/12/01 08:21:47;;;;;;;128.73;30.17;;;-5.20;99.90;;;;;;5053926;28;20048;-18
2023/12/01 08:24:13;;;;;;;109.33;26.93;;;-5.20;99.90;;;;;;5053540;28;20456;-18
2023/12/01 08:26:39;;;;;;;118.03;29.73;;;-5.20;99.90;;;;;;5052564;28;20136;-18
2023/12/01 08:29:05;;;;;;;114.57;29.10;;;-5.10;99.90;;;;;;5053801;28;20497;-18
2023/12/01 08:31:31;;;;;;;121.43;29.00;;;-5.00;99.90;;;;;;5053428;28;20063;-18
2023/12/01 08:33:58;;;;;;;110.57;28.40;;;-4.90;99.90;;;;;;5053667;28;20475;-18
2023/12/01 08:36:24;;;;;;;125.03;29.37;;;-4.80;99.90;;;;;;5053311;28;20426;-18
2023/12/01 08:38:50;;;;;;;129.67;32.77;;;-4.60;99.90;;;;;;5053345;28;20407;-19
2023/12/01 08:41:16;;;;;;;123.00;30.50;;;-4.40;99.90;;;;;;5054368;28;20037;-18
2023/12/01 08:43:41;;;;;;;123.43;31.73;;;-4.20;99.90;;;;;;5054003;28;20049;-18
2023/12/01 08:46:07;;;;;;;108.73;29.50;;;-3.90;99.90;;;;;;5052429;28;20254;-18
2023/12/01 08:48:33;;;;;;;123.60;30.67;;;-3.80;99.90;;;;;;5052351;28;20090;-18
2023/12/01 08:50:59;;;;;;;115.57;29.93;;;-3.80;99.90;;;;;;5053453;28;20051;-18
2023/12/01 08:53:25;;;;;;;96.93;27.00;;;-3.80;99.90;;;;;;5052808;28;20491;-18
2023/12/01 08:55:50;;;;;;;93.80;26.17;;;-3.90;99.90;;;;;;5049655;28;20076;-19
2023/12/01 08:58:17;;;;;;;88.17;25.37;;;-3.90;99.90;;;;;;5053643;28;20052;-18
2023/12/01 09:00:43;;;;;;;89.17;26.43;;;-3.90;99.90;;;;;;5053448;28;20053;-18
2023/12/01 09:03:09;;;;;;;83.17;24.70;;;-3.90;99.90;;;;;;5052713;28;20102;-18
2023/12/01 09:05:35;;;;;;;77.33;25.20;;;-3.90;99.90;;;;;;5052386;28;20049;-18
2023/12/01 09:08:05;;;;;;;76.03;23.27;;;-3.20;99.90;;;;;;5052222;28;20045;-18
2023/12/01 09:10:32;;;;;;;75.87;26.00;;;-3.80;99.90;;;;;;5055408;28;20045;-18
2023/12/01 09:12:58;;;;;;;69.03;24.47;;;-3.70;99.90;;;;;;5056230;28;20402;-19
2023/12/01 09:15:24;;;;;;;76.20;25.07;;;-3.70;99.90;;;;;;5057308;28;20052;-18
2023/12/01 09:17:51;;;;;;;69.17;23.50;;;-3.70;99.90;;;;;;5057013;28;20507;-18
2023/12/01 09:20:17;;;;;;;69.37;25.97;;;-3.70;99.90;;;;;;5056002;28;20087;-19
2023/12/01 09:22:44;;;;;;;69.70;24.20;;;-3.70;99.90;;;;;;5058059;28;20071;-18
2023/12/01 09:25:10;;;;;;;67.70;25.70;;;-3.60;99.90;;;;;;5055938;28;20052;-18
2023/12/01 09:27:37;;;;;;;64.40;24.57;;;-3.60;99.90;;;;;;5056894;28;20135;-18
2023/12/01 09:30:08;;;;;;;63.93;23.57;;;-3.60;99.90;;;;;;5057137;28;20057;-19
2023/12/01 09:32:34;;;;;;;65.87;24.47;;;-3.50;99.90;;;;;;5057864;28;20049;-18
2023/12/01 09:35:00;;;;;;;66.03;24.10;;;-3.40;99.90;;;;;;5056032;28;20510;-18
2023/12/01 09:37:25;;;;;;;69.73;26.33;;;-3.50;99.90;;;;;;5056958;28;20040;-18
2023/12/01 09:39:51;;;;;;;66.37;23.03;;;-3.30;99.90;;;;;;5055944;28;20049;-19
2023/12/01 09:42:22;;;;;;;57.50;22.40;;;-3.40;99.90;;;;;;5055605;28;20127;-18
2023/12/01 09:44:53;;;;;;;67.40;24.87;;;-3.30;99.90;;;;;;5057621;28;20137;-19
2023/12/01 09:47:21;;;;;;;58.27;22.80;;;-3.30;99.90;;;;;;5056804;28;20041;-19
2023/12/01 09:49:49;;;;;;;67.40;23.90;;;-3.20;99.90;;;;;;5055597;28;20045;-18
2023/12/01 09:52:15;;;;;;;61.27;23.73;;;-3.10;99.90;;;;;;5055960;28;20422;-19
2023/12/01 09:54:41;;;;;;;75.57;26.90;;;-2.90;99.90;;;;;;5055418;28;20102;-18
2023/12/01 09:57:07;;;;;;;64.87;24.57;;;-2.90;99.90;;;;;;5055917;28;20056;-18
2023/12/01 09:59:35;;;;;;;68.07;23.57;;;-2.60;99.90;;;;;;5056559;28;20491;-19
2023/12/01 10:02:02;;;;;;;65.90;23.63;;;-2.60;99.90;;;;;;5056082;28;20040;-19
2023/12/01 10:04:29;;;;;;;58.87;24.10;;;-2.60;99.90;;;;;;5038824;28;20049;-19
2023/12/01 10:06:57;;;;;;;64.47;24.47;;;-2.50;99.90;;;;;;5056451;28;20053;-19
2023/12/01 10:09:27;;;;;;;57.97;23.63;;;-2.20;99.90;;;;;;5056915;28;20126;-19
2023/12/01 10:12:16;;;;;;;54.00;22.63;;;-2.30;99.90;;;;;;5055189;28;20114;-18
2023/12/01 10:14:42;;;;;;;57.93;22.93;;;-2.20;99.90;;;;;;5056321;28;20064;-18
2023/12/01 10:17:10;;;;;;;56.40;22.80;;;-2.30;99.90;;;;;;5056255;28;20502;-18
2023/12/01 10:19:47;;;;;;;51.43;21.33;;;-2.10;99.90;;;;;;5056119;28;20398;-19
2023/12/01 10:22:16;;;;;;;53.80;21.90;;;-2.10;99.90;;;;;;5054912;28;20037;-19
2023/12/01 10:25:05;;;;;;;57.67;21.23;;;-1.90;99.90;;;;;;5054859;28;20048;-18
2023/12/01 10:27:32;;;;;;;51.07;21.00;;;-2.00;99.90;;;;;;5054412;28;20414;-18
2023/12/01 10:30:14;;;;;;;55.67;22.07;;;-2.20;99.90;;;;;;5055002;28;20060;-18
2023/12/01 10:32:44;;;;;;;52.42;21.42;;;-2.20;99.90;;;;;;5055887;28;20041;-19
2023/12/01 10:35:09;;;;;;;43.67;20.33;;;-2.10;99.90;;;;;;5054913;28;20045;-18
2023/12/01 10:37:37;;;;;;;50.93;21.50;;;-2.10;99.90;;;;;;5055831;28;20052;-18
2023/12/01 10:40:08;;;;;;;46.87;20.93;;;-2.00;99.90;;;;;;5055820;28;20081;-18
2023/12/01 10:42:34;;;;;;;49.00;20.63;;;-2.00;99.90;;;;;;5056088;28;20049;-18
2023/12/01 10:45:01;;;;;;;47.73;20.30;;;-1.90;99.90;;;;;;5055035;28;20132;-19
2023/12/01 10:47:28;;;;;;;46.93;20.07;;;-1.90;99.90;;;;;;5056240;28;20049;-19
2023/12/01 10:49:58;;;;;;;44.70;20.07;;;-1.90;99.90;;;;;;5038148;28;20045;-19
2023/12/01 10:52:30;;;;;;;43.63;21.23;;;-1.80;99.90;;;;;;5054215;28;20087;-19
2023/12/01 10:54:55;;;;;;;39.60;18.10;;;-1.90;99.90;;;;;;5055732;28;20395;-18
2023/12/01 10:57:40;;;;;;;44.67;20.87;;;-1.90;99.90;;;;;;5054220;28;20045;-19
2023/12/01 11:00:19;;;;;;;45.53;19.83;;;-1.70;99.90;;;;;;5038095;28;20052;-18
2023/12/01 11:02:48;;;;;;;41.83;19.30;;;-1.90;99.90;;;;;;5055724;28;20037;-19
2023/12/01 11:05:15;;;;;;;41.67;20.53;;;-1.80;99.90;;;;;;5055330;28;20498;-19
2023/12/01 11:08:06;;;;;;;45.13;20.57;;;-1.70;99.90;;;;;;5054120;28;20044;-19
2023/12/01 11:11:07;;;;;;;41.57;19.70;;;-1.60;99.90;;;;;;5054896;28;20049;-19
2023/12/01 11:14:09;;;;;;;45.73;20.77;;;-1.60;99.90;;;;;;5053619;28;20064;-19
2023/12/01 11:16:35;;;;;;;46.70;21.47;;;-1.40;99.90;;;;;;5055695;28;20041;-19
2023/12/01 11:19:00;;;;;;;41.60;19.67;;;-1.50;99.90;;;;;;5055271;28;20041;-19
2023/12/01 11:21:28;;;;;;;43.07;20.47;;;-1.10;99.90;;;;;;5055058;28;20383;-19
2023/12/01 11:23:54;;;;;;;41.70;20.77;;;-1.40;99.90;;;;;;5054532;28;20045;-19
2023/12/01 11:26:23;;;;;;;43.23;19.93;;;-1.20;99.90;;;;;;5036781;28;20055;-19
2023/12/01 11:28:57;;;;;;;39.63;18.33;;;-1.70;99.90;;;;;;5056006;28;20376;-19
2023/12/01 11:33:59;;;;;;;41.33;19.90;;;-0.60;99.90;;;;;;5054236;28;20048;-19
2023/12/01 11:36:33;;;;;;;37.30;17.73;;;-1.60;99.90;;;;;;5054703;28;20479;-19
2023/12/01 11:39:16;;;;;;;38.40;19.60;;;-1.20;99.90;;;;;;5053753;28;20084;-19
2023/12/01 11:41:42;;;;;;;37.78;18.27;;;-1.20;99.90;;;;;;5054729;28;20118;-19
2023/12/01 11:44:14;;;;;;;36.57;18.17;;;-1.20;99.90;;;;;;5054546;28;20479;-19
2023/12/01 11:46:40;;;;;;;42.58;19.50;;;-1.30;99.90;;;;;;5053354;28;20045;-19
2023/12/01 11:49:07;;;;;;;42.47;19.50;;;-1.20;99.90;;;;;;5054449;28;20045;-19
2023/12/01 11:51:33;;;;;;;38.93;17.90;;;-1.20;99.90;;;;;;5054335;28;20050;-19
2023/12/01 11:54:01;;;;;;;35.77;17.77;;;-1.30;99.90;;;;;;5054883;28;20086;-20
2023/12/01 11:56:28;;;;;;;44.07;21.33;;;-1.10;99.90;;;;;;5054318;28;20053;-19
2023/12/01 11:58:56;;;;;;;40.40;19.00;;;-1.20;99.90;;;;;;5054245;28;20452;-20
2023/12/01 12:01:22;;;;;;;37.13;18.43;;;-0.30;99.90;;;;;;5054245;28;20124;-19
2023/12/01 12:03:56;;;;;;;42.73;20.40;;;-1.00;99.90;;;;;;5054753;28;20056;-19
2023/12/01 12:06:23;;;;;;;47.17;20.92;;;-1.00;99.90;;;;;;5053061;28;20041;-20
2023/12/01 12:08:53;;;;;;;52.17;22.20;;;-0.90;99.90;;;;;;5054210;28;20049;-20
2023/12/01 12:11:20;;;;;;;45.87;21.03;;;-0.90;99.90;;;;;;5054568;28;20045;-20
2023/12/01 12:13:55;;;;;;;41.80;19.98;;;-0.80;99.90;;;;;;5054569;28;20486;-20
2023/12/01 12:16:23;;;;;;;42.73;19.80;;;-0.80;99.90;;;;;;5052998;28;20040;-20
2023/12/01 12:18:49;;;;;;;41.75;19.38;;;-1.10;99.90;;;;;;5052717;28;20048;-21
2023/12/01 12:21:16;;;;;;;33.87;17.90;;;-1.00;99.90;;;;;;5053916;28;20044;-21
2023/12/01 12:23:42;;;;;;;41.53;19.00;;;-1.10;99.90;;;;;;5053450;28;20403;-21
2023/12/01 12:26:15;;;;;;;42.25;21.23;;;-0.80;99.90;;;;;;5053415;28;20048;-21
2023/12/01 12:28:50;;;;;;;43.17;20.80;;;-0.30;99.90;;;;;;5053822;28;20049;-21
2023/12/01 12:31:18;;;;;;;44.03;18.95;;;-0.40;99.90;;;;;;5054348;28;20053;-22
2023/12/01 12:33:43;;;;;;;46.95;19.65;;;-0.50;99.90;;;;;;5052501;28;20051;-22